首页
METAR-TAF:

METAR-TAF

机场 :

Webster City Municipal Airport

Webster City, 艾奥瓦州, 美国

纬度: 42-26N, 经度: 093-52W, 海拔: 342米

当前天气观测

该预报发布于40分钟前的04:30 UTC
风速12节,风向南转西南
温度 30°C
湿度 79%
气压 1004 hPa
能見度: 16.1公里
天空无云

METAR: KEBS 250430Z AUTO 20012KT 10SM CLR 30/26 A2965 RMK AO2

时间: 00:10 (05:10 UTC)


TAF: 丢失

超过4000个机场的气象观测和天气预报(METAR&TAF报告)。

可查询的气象台以黄色和红色小点在地图上表示。

将鼠标移到小点上方,可查看气象台名称。

然后点击查看天气观测和预报。

如需切换地图:点击带黑十字的绿色按钮放大地图;点击带横线的绿色按钮缩小地图;或者点击绿色箭头查看邻近地区的地图。


METAR-TAF: